Seward, AK

12:58 PM AKDT on June 27, 2017 (GMT -0800)
Hook Towers | | Change Station

Elev 171 ft 60.13 °N, 149.45 °W | Updated 8 seconds ago

Light Rain
Light Rain
53.1 °F
Feels Like 53.1 °F
N
2.0
Wind Variable Wind from South
Gusts 3.0 mph

Today
High -- | Low -- °F
--% Chance of Precip.
Yesterday
High -- | Low -- °F
Precip. -- in
Pressure 29.94 in
Visibility 7.0 miles
Clouds Mostly Cloudy 5500 ft
Overcast 7000 ft
Dew Point 51 °F
Humidity 92%
Rainfall 0.07 in
Snow Depth Not available.
4:35 AM 11:25 PM
Waxing Crescent, 19% visible
METAR PAWD 272053Z AUTO 17010KT 7SM -RA BKN055 OVC070 11/10 A2994 RMK AO2 SLP139 P0005 60006 T01110100 56009 TSNO
Pressure 29.94 in
Visibility 7.0 miles
Clouds Mostly Cloudy 5500 ft
Overcast 7000 ft
Dew Point 51 °F
Humidity 92%
Rainfall 0.07 in
Snow Depth Not available.
4:35 AM 11:25 PM
Waxing Crescent, 19% visible
METAR PAWD 272053Z AUTO 17010KT 7SM -RA BKN055 OVC070 11/10 A2994 RMK AO2 SLP139 P0005 60006 T01110100 56009 TSNO

Get Severe Weather Alerts

Thanks for signing up!

Be on the lookout for a verification email in your inbox.

You'll start receiving the daily forecast at 6 AM.

×

10-Day Weather Forecast

Almanac

Astronomy

Jun. 27, 2017 Rise Set
Actual Time
Civil Twilight
Nautical Twilight
Astronomical Twilight
Moon
Length of Visible Light
Length of Day
Tomorrow will be .
, % of the Moon is Illuminated

Today's Extremes

State Highs State Lows

Community

WunderPhotos

Category 6

Welcome to Category 6. This is the collective home for Weather Underground's featured writeups by Dr. Jeff Masters (right), Bob Henson (left), Chris Burt, and other regular contributors.

Nearby

Air Quality

  Air Quality AQ Index Pollutant
Not available.

Snow Depth

Station Depth Elevation

Earthquake Activity

City Distance Mag. Time & Date
Minimum magnitude displayed is 2.5.

Coastal Water Temperatures

Place Temperature

Stations

Nearby Weather Stations

Station Location Temp. Windchill Dew Point Humidity Wind Precip. Elev Updated Type
                   

Watches & Warnings

There are currently no watches in effect.